createdAt,value
2022-10-17T00:00:11.959Z,31.15
2022-10-17T00:02:39.069Z,34.17
2022-10-17T00:05:12.433Z,41.83
2022-10-17T00:07:40.900Z,36.47
2022-10-17T00:10:15.531Z,34.88
2022-10-17T00:12:42.793Z,43.20
2022-10-17T00:15:16.464Z,31.27
2022-10-17T00:17:43.740Z,41.17
2022-10-17T00:20:31.497Z,30.45
2022-10-17T00:23:05.339Z,28.80
2022-10-17T00:25:32.553Z,35.25
2022-10-17T00:27:59.818Z,39.35
2022-10-17T00:30:33.494Z,35.58
2022-10-17T00:33:00.660Z,38.05
2022-10-17T00:35:34.549Z,35.65
2022-10-17T00:38:01.703Z,39.92
2022-10-17T00:40:28.807Z,37.75
2022-10-17T00:43:02.471Z,30.63
2022-10-17T00:45:30.703Z,41.13
2022-10-17T00:48:10.441Z,35.75
2022-10-17T00:50:42.141Z,47.38
2022-10-17T00:53:10.261Z,32.13
2022-10-17T00:55:52.432Z,39.50
2022-10-17T00:58:19.765Z,36.42
2022-10-17T01:00:54.569Z,51.67
2022-10-17T01:03:21.781Z,38.22
2022-10-17T01:05:48.879Z,45.55
2022-10-17T01:08:22.463Z,42.22
2022-10-17T01:10:57.320Z,41.63
2022-10-17T01:13:53.546Z,30.27
2022-10-17T01:16:29.240Z,46.88
2022-10-17T01:19:10.520Z,44.17
2022-10-17T01:21:58.444Z,45.40
2022-10-17T01:24:32.516Z,34.93
2022-10-17T01:27:15.075Z,28.77
2022-10-17T01:30:01.512Z,34.30
2022-10-17T01:32:28.854Z,31.25
2022-10-17T01:37:44.136Z,25.63
2022-10-17T01:40:23.503Z,39.92
2022-10-17T01:42:50.673Z,26.20
2022-10-17T01:45:22.152Z,40.72
2022-10-17T01:47:57.434Z,35.17
2022-10-17T01:50:26.331Z,41.35
2022-10-17T01:53:02.581Z,28.75
2022-10-17T01:55:32.862Z,44.45
2022-10-17T01:58:10.434Z,34.13
2022-10-17T02:00:38.538Z,33.80
2022-10-17T02:03:14.444Z,29.70
2022-10-17T02:05:42.218Z,37.38
2022-10-17T02:08:16.458Z,35.75
2022-10-17T02:10:52.896Z,52.67
2022-10-17T02:13:31.708Z,36.88
2022-10-17T02:16:09.483Z,38.72
2022-10-17T02:18:49.569Z,44.08
2022-10-17T02:21:50.446Z,32.13
2022-10-17T02:24:44.615Z,45.80
2022-10-17T02:27:15.427Z,34.75
2022-10-17T02:29:57.595Z,41.95
2022-10-17T02:32:28.055Z,44.83
2022-10-17T02:34:56.803Z,39.50
2022-10-17T02:37:33.597Z,38.85
2022-10-17T02:40:01.316Z,32.67
2022-10-17T02:42:36.498Z,36.65
2022-10-17T02:45:04.862Z,44.95
2022-10-17T02:47:50.608Z,42.50
2022-10-17T02:50:17.992Z,46.42
2022-10-17T02:52:49.314Z,22.70
2022-10-17T02:55:28.655Z,42.25
2022-10-17T02:57:58.057Z,36.65
2022-10-17T03:00:39.478Z,38.35
2022-10-17T03:03:19.372Z,46.05
2022-10-17T03:05:53.544Z,40.67
2022-10-17T03:08:20.851Z,34.88
2022-10-17T03:10:54.523Z,31.92
2022-10-17T03:13:21.790Z,35.78
2022-10-17T03:15:48.963Z,39.97
2022-10-17T03:18:22.462Z,37.40
2022-10-17T03:21:09.396Z,45.83
2022-10-17T03:23:43.500Z,37.22
2022-10-17T03:26:10.641Z,33.90
2022-10-17T03:28:37.927Z,34.90
2022-10-17T03:31:15.504Z,39.53
2022-10-17T03:33:42.778Z,45.15
2022-10-17T03:36:21.545Z,26.63
2022-10-17T03:38:48.961Z,33.53
2022-10-17T03:41:16.109Z,53.15
2022-10-17T03:43:49.483Z,43.72
2022-10-17T03:48:55.530Z,34.42
2022-10-17T03:51:22.714Z,51.10
2022-10-17T03:53:49.840Z,37.45
2022-10-17T03:56:24.496Z,44.42
2022-10-17T03:58:51.680Z,29.20
2022-10-17T04:01:26.711Z,40.78
2022-10-17T04:03:54.882Z,38.35
2022-10-17T04:06:22.805Z,36.15
2022-10-17T04:08:57.519Z,44.55
2022-10-17T04:11:24.769Z,34.95
2022-10-17T04:14:02.577Z,34.17
2022-10-17T04:16:29.784Z,39.60
2022-10-17T04:18:57.664Z,32.25
2022-10-17T04:21:31.661Z,39.72
2022-10-17T04:23:59.987Z,34.53
2022-10-17T04:26:27.659Z,31.08
2022-10-17T04:29:01.642Z,37.55
2022-10-17T04:31:28.913Z,30.55
2022-10-17T04:33:56.002Z,25.67
2022-10-17T04:36:29.500Z,38.03
2022-10-17T04:38:56.736Z,35.72
2022-10-17T04:41:30.502Z,31.58
2022-10-17T04:43:57.651Z,39.38
2022-10-17T04:46:31.480Z,43.50
2022-10-17T04:48:58.623Z,42.55
2022-10-17T04:51:32.493Z,51.40
2022-10-17T04:53:59.773Z,31.60
2022-10-17T04:56:33.491Z,32.42
2022-10-17T04:59:00.756Z,38.90
2022-10-17T05:01:34.553Z,46.22
2022-10-17T05:04:01.722Z,37.80
2022-10-17T05:06:28.849Z,41.80
2022-10-17T05:09:04.542Z,43.63
2022-10-17T05:11:31.747Z,28.52
2022-10-17T05:14:02.550Z,30.98
2022-10-17T05:16:36.563Z,36.42
2022-10-17T05:19:10.415Z,35.55
2022-10-17T05:21:50.601Z,35.20
2022-10-17T05:24:17.855Z,40.72
2022-10-17T05:26:51.617Z,32.97
2022-10-17T05:29:18.879Z,37.85
2022-10-17T05:31:45.987Z,44.05
2022-10-17T05:34:19.508Z,35.75
2022-10-17T05:36:46.713Z,38.38
2022-10-17T05:39:21.558Z,36.17
2022-10-17T05:41:48.936Z,42.92
2022-10-17T05:44:16.067Z,46.28
2022-10-17T05:46:49.625Z,42.30
2022-10-17T05:49:32.171Z,49.30
2022-10-17T05:52:10.656Z,71.63
2022-10-17T05:54:37.773Z,37.65
2022-10-17T05:57:05.022Z,49.55
2022-10-17T05:59:38.653Z,46.42
2022-10-17T06:02:05.955Z,43.85
2022-10-17T06:04:39.552Z,53.72
2022-10-17T06:07:06.666Z,44.55
2022-10-17T06:09:40.589Z,51.38
2022-10-17T06:12:08.259Z,46.00
2022-10-17T06:14:35.412Z,56.33
2022-10-17T06:17:14.851Z,58.20
2022-10-17T06:19:44.663Z,79.45
2022-10-17T06:22:25.534Z,122.63
2022-10-17T06:24:53.724Z,86.07
2022-10-17T06:27:27.687Z,69.43
2022-10-17T06:29:54.862Z,58.22
2022-10-17T06:32:21.934Z,51.65
2022-10-17T06:34:55.632Z,45.42
2022-10-17T06:37:22.799Z,51.72
2022-10-17T06:39:56.707Z,53.35
2022-10-17T06:42:23.893Z,50.30
2022-10-17T06:44:50.976Z,60.25
2022-10-17T06:47:24.541Z,44.25
2022-10-17T06:49:51.721Z,38.78
2022-10-17T06:52:25.714Z,48.50
2022-10-17T06:54:52.911Z,70.03
2022-10-17T06:57:20.039Z,50.70
2022-10-17T06:59:53.638Z,43.13
2022-10-17T07:02:21.147Z,51.45
2022-10-17T07:04:54.597Z,40.95
2022-10-17T07:07:21.774Z,44.42
2022-10-17T07:09:48.854Z,49.25
2022-10-17T07:12:22.642Z,44.75
2022-10-17T07:14:50.478Z,64.47
2022-10-17T07:17:25.629Z,38.53
2022-10-17T07:19:52.821Z,55.50
2022-10-17T07:22:39.648Z,39.17
2022-10-17T07:25:07.139Z,50.92
2022-10-17T07:27:34.344Z,56.22
2022-10-17T07:30:08.510Z,39.50
2022-10-17T07:32:35.696Z,45.30
2022-10-17T07:35:09.674Z,44.72
2022-10-17T07:37:36.987Z,46.75
2022-10-17T07:40:04.880Z,35.42
2022-10-17T07:45:07.080Z,49.28
2022-10-17T07:50:09.928Z,39.63
2022-10-17T07:52:37.094Z,41.80
2022-10-17T07:55:10.653Z,67.72
2022-10-17T07:57:37.973Z,240.95
2022-10-17T08:00:05.494Z,55.47
2022-10-17T08:02:39.573Z,116.88
2022-10-17T08:05:06.980Z,89.60
2022-10-17T08:07:40.562Z,52.47
2022-10-17T08:12:36.381Z,60.90
2022-10-17T08:15:10.687Z,59.88
2022-10-17T08:17:38.888Z,56.30
2022-10-17T08:20:07.078Z,45.13
2022-10-17T08:22:40.703Z,42.67
2022-10-17T08:25:08.214Z,50.47
2022-10-17T08:30:09.166Z,40.58
2022-10-17T08:32:36.246Z,44.95
2022-10-17T08:35:09.707Z,59.00
2022-10-17T08:37:36.948Z,50.53
2022-10-17T08:40:04.284Z,54.72
2022-10-17T08:42:47.693Z,45.78
2022-10-17T08:45:33.313Z,48.83
2022-10-17T08:48:11.743Z,45.92
2022-10-17T08:50:41.290Z,48.92
2022-10-17T08:53:08.545Z,46.20
2022-10-17T08:55:49.562Z,42.30
2022-10-17T08:58:19.694Z,47.80
2022-10-17T09:01:13.223Z,46.97
2022-10-17T09:03:50.488Z,48.50
2022-10-17T09:06:25.416Z,54.00
2022-10-17T09:09:18.619Z,49.03
2022-10-17T09:12:31.648Z,39.58
2022-10-17T09:15:24.504Z,49.20
2022-10-17T09:17:56.788Z,50.60
2022-10-17T09:20:35.473Z,32.88
2022-10-17T09:23:24.666Z,52.03
2022-10-17T09:26:01.484Z,65.18
2022-10-17T09:28:31.521Z,58.78
2022-10-17T09:31:23.496Z,55.30
2022-10-17T09:33:55.930Z,62.15
2022-10-17T09:36:50.516Z,42.30
2022-10-17T09:39:19.602Z,44.58
2022-10-17T09:41:59.510Z,40.83
2022-10-17T09:44:33.975Z,31.92
2022-10-17T09:47:13.523Z,45.13
2022-10-17T09:49:42.234Z,38.83
2022-10-17T09:52:21.524Z,40.30
2022-10-17T09:55:03.533Z,45.33
2022-10-17T09:57:57.634Z,41.35
2022-10-17T10:00:26.466Z,48.25
2022-10-17T10:03:15.648Z,44.00
2022-10-17T10:05:43.959Z,58.05
2022-10-17T10:08:22.551Z,30.45
2022-10-17T10:11:18.629Z,42.85
2022-10-17T10:13:55.533Z,48.50
2022-10-17T10:16:32.379Z,36.95
2022-10-17T10:19:08.431Z,45.88
2022-10-17T10:22:08.675Z,40.78
2022-10-17T10:27:17.473Z,26.70
2022-10-17T10:29:56.636Z,35.63
2022-10-17T10:32:33.839Z,33.40
2022-10-17T10:35:26.528Z,39.90
2022-10-17T10:37:55.016Z,38.60
2022-10-17T10:40:31.518Z,42.85
2022-10-17T10:43:04.847Z,32.78
2022-10-17T10:45:48.433Z,35.47
2022-10-17T10:48:23.844Z,44.13
2022-10-17T10:50:59.526Z,35.05
2022-10-17T10:53:47.955Z,42.00
2022-10-17T10:56:29.732Z,40.33
2022-10-17T10:59:05.032Z,41.80
2022-10-17T11:02:00.549Z,43.22
2022-10-17T11:04:35.213Z,36.28
2022-10-17T11:07:18.560Z,28.35
2022-10-17T11:09:59.353Z,40.60
2022-10-17T11:12:36.561Z,28.25
2022-10-17T11:15:21.648Z,30.17
2022-10-17T11:18:04.041Z,35.40
2022-10-17T11:20:41.716Z,30.55
2022-10-17T11:23:21.299Z,36.58
2022-10-17T11:25:57.649Z,35.20
2022-10-17T11:28:25.751Z,32.10
2022-10-17T11:31:08.129Z,30.48
2022-10-17T11:33:47.124Z,36.50
2022-10-17T11:36:21.651Z,32.65
2022-10-17T11:38:51.708Z,30.40
2022-10-17T11:41:28.732Z,28.30
2022-10-17T11:43:58.873Z,35.63
2022-10-17T11:46:42.919Z,45.63
2022-10-17T11:49:20.321Z,36.47
2022-10-17T11:52:01.465Z,41.42
2022-10-17T11:54:35.538Z,21.40
2022-10-17T11:57:24.760Z,24.05
2022-10-17T12:00:10.455Z,34.10
2022-10-17T12:02:49.681Z,27.58
2022-10-17T12:05:25.882Z,34.92
2022-10-17T12:08:12.663Z,29.55
2022-10-17T12:10:39.743Z,33.60
2022-10-17T12:13:31.754Z,25.45
2022-10-17T12:16:19.162Z,33.60
2022-10-17T12:18:53.657Z,31.80
2022-10-17T12:21:31.287Z,26.73
2022-10-17T12:24:16.746Z,35.42
2022-10-17T12:26:45.947Z,26.17
2022-10-17T12:29:33.651Z,31.13
2022-10-17T12:32:13.317Z,41.58
2022-10-17T12:34:46.782Z,23.90
2022-10-17T12:37:15.075Z,42.97
2022-10-17T12:39:49.637Z,38.60
2022-10-17T12:42:46.428Z,36.40
2022-10-17T12:45:38.668Z,30.67
2022-10-17T12:48:09.760Z,25.85
2022-10-17T12:51:23.768Z,26.13
2022-10-17T12:53:50.027Z,65.68
2022-10-17T12:56:26.712Z,84.97
2022-10-17T12:58:54.372Z,39.25
2022-10-17T13:03:59.735Z,52.78
2022-10-17T13:06:29.526Z,30.38
2022-10-17T13:09:07.689Z,34.15
2022-10-17T13:11:36.684Z,28.90
2022-10-17T13:14:11.628Z,32.80
2022-10-17T13:16:39.994Z,26.00
2022-10-17T13:19:21.828Z,29.42
2022-10-17T13:22:05.328Z,35.75
2022-10-17T13:24:47.643Z,31.80
2022-10-17T13:27:34.017Z,25.10
2022-10-17T13:30:08.702Z,33.50
2022-10-17T13:32:40.798Z,33.60
2022-10-17T13:35:15.843Z,28.80
2022-10-17T13:37:53.989Z,26.77
2022-10-17T13:40:44.135Z,25.05
2022-10-17T13:43:26.732Z,34.85
2022-10-17T13:46:09.338Z,29.92
2022-10-17T13:48:53.631Z,26.38
2022-10-17T13:51:20.952Z,21.33
2022-10-17T13:53:48.188Z,27.95
2022-10-17T13:56:29.284Z,25.88
2022-10-17T13:59:01.960Z,23.05
2022-10-17T14:01:36.802Z,22.05
2022-10-17T14:04:19.542Z,31.90
2022-10-17T14:25:02.281Z,24.13
2022-10-17T14:27:44.599Z,28.90
2022-10-17T14:30:51.711Z,26.67
2022-10-17T14:33:27.610Z,23.45
2022-10-17T14:35:56.456Z,25.42
2022-10-17T14:38:30.597Z,29.77
2022-10-17T14:41:09.772Z,29.67
2022-10-17T14:43:52.619Z,27.70
2022-10-17T14:46:20.022Z,25.42
2022-10-17T14:48:52.169Z,19.65
2022-10-17T14:51:26.667Z,23.73
2022-10-17T14:54:05.606Z,22.60
2022-10-17T14:56:49.791Z,25.92
2022-10-17T14:59:51.717Z,21.90
2022-10-17T15:02:16.816Z,18.85
2022-10-17T15:04:43.994Z,20.33
2022-10-17T15:07:14.536Z,19.30
2022-10-17T15:09:48.698Z,27.65
2022-10-17T15:12:27.836Z,21.02
2022-10-17T15:14:55.316Z,18.20
2022-10-17T15:17:32.689Z,20.40
2022-10-17T15:20:00.349Z,19.08
2022-10-17T15:25:07.848Z,23.25
2022-10-17T15:27:41.634Z,18.27
2022-10-17T15:30:20.746Z,20.30
2022-10-17T15:32:55.756Z,20.63
2022-10-17T15:35:23.168Z,17.27
2022-10-17T15:37:50.475Z,22.42
2022-10-17T15:40:25.921Z,24.17
2022-10-17T15:42:53.091Z,22.50
2022-10-17T15:45:30.718Z,17.88
2022-10-17T15:47:59.893Z,19.83
2022-10-17T15:50:29.190Z,22.67
2022-10-17T15:53:02.709Z,21.17
2022-10-17T15:55:38.734Z,22.02
2022-10-17T15:58:05.988Z,18.95
2022-10-17T16:00:33.237Z,20.77
2022-10-17T16:03:06.789Z,17.23
2022-10-17T16:05:33.879Z,19.63
2022-10-17T16:08:01.108Z,20.13
2022-10-17T16:10:34.699Z,15.73
2022-10-17T16:13:01.830Z,16.58
2022-10-17T16:15:35.795Z,18.63
2022-10-17T16:18:05.978Z,16.15
2022-10-17T16:20:40.961Z,15.20
2022-10-17T16:23:14.727Z,20.33
2022-10-17T16:25:55.858Z,13.93
2022-10-17T16:28:23.064Z,16.73
2022-10-17T16:30:50.334Z,23.50
2022-10-17T16:33:23.713Z,18.35
2022-10-17T16:35:51.026Z,18.60
2022-10-17T16:38:24.769Z,21.48
2022-10-17T16:40:51.858Z,21.58
2022-10-17T16:43:19.013Z,18.30
2022-10-17T16:45:52.749Z,19.05
2022-10-17T16:48:19.945Z,18.77
2022-10-17T16:50:53.912Z,13.20
2022-10-17T16:53:21.146Z,13.25
2022-10-17T16:56:05.836Z,12.00
2022-10-17T16:58:33.019Z,17.48
2022-10-17T17:01:04.155Z,12.75
2022-10-17T17:03:37.884Z,13.85
2022-10-17T17:06:06.540Z,15.43
2022-10-17T17:08:34.591Z,14.68
2022-10-17T17:11:08.717Z,13.43
2022-10-17T17:13:36.240Z,11.05
2022-10-17T17:18:40.453Z,21.70
2022-10-17T17:21:08.967Z,13.75
2022-10-17T17:23:43.764Z,12.50
2022-10-17T17:26:15.411Z,16.83
2022-10-17T17:28:49.867Z,12.43
2022-10-17T17:31:18.291Z,16.83
2022-10-17T17:33:53.759Z,14.88
2022-10-17T17:36:22.660Z,14.88
2022-10-17T17:38:50.471Z,19.15
2022-10-17T17:41:24.895Z,18.83
2022-10-17T17:43:52.446Z,15.57
2022-10-17T17:48:55.083Z,16.42
2022-10-17T17:51:28.401Z,15.00
2022-10-17T17:54:03.827Z,15.20
2022-10-17T17:56:31.087Z,18.67
2022-10-17T17:59:00.092Z,50.00
2022-10-17T18:01:34.775Z,43.33
2022-10-17T18:04:01.981Z,37.25
2022-10-17T18:06:35.771Z,16.08
2022-10-17T18:09:03.108Z,116.43
2022-10-17T18:11:36.894Z,66.47
2022-10-17T18:14:05.683Z,26.50
2022-10-17T18:16:34.184Z,19.35
2022-10-17T18:19:09.842Z,17.40
2022-10-17T18:21:37.246Z,18.77
2022-10-17T18:24:11.751Z,21.60
2022-10-17T18:26:45.750Z,31.15
2022-10-17T18:29:19.882Z,32.08
2022-10-17T18:31:47.203Z,16.42
2022-10-17T18:34:14.379Z,17.08
2022-10-17T18:36:47.768Z,19.05
2022-10-17T18:39:14.944Z,15.95
2022-10-17T18:41:42.067Z,45.95
2022-10-17T18:44:18.769Z,38.67
2022-10-17T18:46:46.943Z,18.58
2022-10-17T18:49:21.872Z,22.05
2022-10-17T18:51:49.047Z,18.88
2022-10-17T18:54:26.897Z,22.50
2022-10-17T18:56:54.925Z,29.05
2022-10-17T18:59:22.087Z,30.42
2022-10-17T19:01:56.112Z,26.58
2022-10-17T19:04:29.723Z,92.57
2022-10-17T19:06:57.041Z,153.38
2022-10-17T19:09:24.287Z,513.55
2022-10-17T19:11:57.823Z,765.92
2022-10-17T19:14:26.225Z,105.07
2022-10-17T19:16:59.769Z,281.58
2022-10-17T19:19:27.476Z,75.32
2022-10-17T19:22:00.756Z,79.22
2022-10-17T19:24:47.669Z,273.50
2022-10-17T19:27:21.779Z,350.33
2022-10-17T19:29:48.880Z,180.70
2022-10-17T19:32:23.039Z,229.15
2022-10-17T19:34:50.237Z,247.73
2022-10-17T19:37:23.848Z,265.80
2022-10-17T19:39:50.922Z,120.30
2022-10-17T19:42:18.054Z,120.93
2022-10-17T19:44:51.751Z,98.97
2022-10-17T19:47:18.830Z,145.20
2022-10-17T19:49:52.896Z,202.30
2022-10-17T19:52:26.914Z,200.80
2022-10-17T19:55:00.803Z,164.93
2022-10-17T19:57:28.000Z,117.85
2022-10-17T19:59:56.165Z,128.95
2022-10-17T20:02:30.094Z,142.88
2022-10-17T20:05:13.875Z,104.88
2022-10-17T20:07:50.894Z,98.25
2022-10-17T20:10:18.931Z,68.05
2022-10-17T20:12:46.024Z,73.30
2022-10-17T20:15:19.853Z,104.05
2022-10-17T20:17:53.757Z,91.03
2022-10-17T20:20:27.907Z,48.63
2022-10-17T20:22:55.108Z,51.83
2022-10-17T20:25:35.949Z,38.00
2022-10-17T20:28:03.202Z,42.70
2022-10-17T20:30:30.737Z,31.42
2022-10-17T20:35:32.139Z,36.60
2022-10-17T20:37:59.280Z,36.60
2022-10-17T20:40:35.339Z,50.35
2022-10-17T20:43:02.838Z,59.53
2022-10-17T20:45:50.417Z,42.47
2022-10-17T20:48:18.778Z,62.90
2022-10-17T20:50:52.919Z,43.75
2022-10-17T20:53:37.359Z,64.03
2022-10-17T20:56:13.107Z,55.50
2022-10-17T20:58:40.318Z,51.70
2022-10-17T21:01:11.182Z,64.95
2022-10-17T21:03:46.636Z,55.22
2022-10-17T21:06:20.706Z,64.78
2022-10-17T21:08:54.784Z,54.25
2022-10-17T21:11:29.864Z,58.55
2022-10-17T21:14:01.955Z,72.35
2022-10-17T21:16:36.743Z,62.80
2022-10-17T21:19:04.406Z,63.88
2022-10-17T21:24:07.823Z,64.28
2022-10-17T21:26:42.844Z,43.67
2022-10-17T21:29:16.795Z,36.45
2022-10-17T21:31:44.884Z,32.05
2022-10-17T21:34:23.930Z,37.13
2022-10-17T21:36:51.560Z,25.55
2022-10-17T21:41:52.813Z,31.80
2022-10-17T21:44:24.547Z,20.45
2022-10-17T21:46:58.806Z,24.60
2022-10-17T21:49:26.058Z,17.85
2022-10-17T21:51:59.823Z,25.63
2022-10-17T21:54:26.917Z,21.13
2022-10-17T21:57:01.118Z,21.35
2022-10-17T21:59:28.366Z,27.25
2022-10-17T22:01:55.488Z,25.58
2022-10-17T22:04:28.822Z,24.33
2022-10-17T22:06:56.051Z,13.95
2022-10-17T22:09:31.849Z,19.83
2022-10-17T22:11:59.064Z,15.75
2022-10-17T22:14:33.912Z,20.70
2022-10-17T22:17:01.636Z,16.20
2022-10-17T22:19:28.765Z,17.95
2022-10-17T22:22:02.903Z,18.92
2022-10-17T22:24:38.065Z,16.58
2022-10-17T22:27:12.848Z,22.63
2022-10-17T22:29:40.070Z,16.40
2022-10-17T22:32:07.168Z,14.32
2022-10-17T22:34:40.843Z,12.30
2022-10-17T22:37:08.022Z,24.88
2022-10-17T22:39:35.331Z,9.27
2022-10-17T22:42:08.937Z,15.52
2022-10-17T22:44:36.298Z,13.32
2022-10-17T22:47:03.379Z,15.15
2022-10-17T22:49:36.822Z,15.95
2022-10-17T22:52:04.010Z,17.83
2022-10-17T22:54:37.951Z,16.33
2022-10-17T22:57:05.224Z,18.67
2022-10-17T22:59:32.341Z,12.32
2022-10-17T23:02:05.930Z,15.95
2022-10-17T23:04:33.221Z,11.23
2022-10-17T23:07:06.913Z,14.82
2022-10-17T23:09:34.101Z,12.63
2022-10-17T23:12:01.187Z,16.45
2022-10-17T23:14:34.883Z,19.42
2022-10-17T23:17:02.132Z,22.38
2022-10-17T23:19:29.617Z,14.40
2022-10-17T23:22:02.909Z,16.35
2022-10-17T23:24:36.822Z,12.80
2022-10-17T23:27:10.928Z,9.32
2022-10-17T23:29:38.098Z,12.38
2022-10-17T23:32:11.824Z,6.90
2022-10-17T23:34:39.010Z,8.80
2022-10-17T23:37:12.975Z,16.17
2022-10-17T23:39:40.155Z,13.30
2022-10-17T23:42:07.355Z,15.40
2022-10-17T23:44:40.825Z,12.30
2022-10-17T23:47:07.915Z,10.75
2022-10-17T23:49:41.876Z,10.00
2022-10-17T23:52:09.070Z,11.10
2022-10-17T23:54:36.263Z,10.45
2022-10-17T23:57:10.028Z,11.13
2022-10-17T23:59:37.158Z,7.28
